• Join FlightAware (Why Join?)
  • Login
  • US Flag 
 
10:51AM EST


 

Airport Tracker/Info


-or-


 

Live Flight TrackerFlight Track Log ✈ CTL311 ✈ 26-Oct-2013 ✈ KOSU - KJXN

Flight Track Log - Related Links

Times and Time Zones

All times are in EDT time to prevent confusion due to time zone crossing. See the CTL311 flight status page for this flight to view local times or setup timezone preferences in your user account.

Time Position Orientation Groundspeed Altitude Reporting Facility
EDT Latitude Longitude Course Direction KTS MPH feet Rate Location/Type
05:08AM 40.1067 -83.0908 344° North 121 139 2,200  Level Indianapolis Center
05:09AM 40.1189 -83.0956 344° North 135 155 2,500 600 Climbing Indianapolis Center
05:10AM 40.1575 -83.1125 341° North 153 176 3,000 540 Climbing Indianapolis Center
05:10AM 40.1611 -83.1161 323° Northwest 161 185 3,100 360 Climbing Indianapolis Center
05:11AM 40.2000 -83.1364 338° Northwest 157 181 3,400 480 Climbing Indianapolis Center
05:11AM 40.2047 -83.1425 315° West 168 193 3,600 360 Climbing Indianapolis Center
05:12AM 40.2431 -83.1625 338° Northwest 165 190 3,800 360 Climbing Indianapolis Center
05:12AM 40.2486 -83.1661 334° Northwest 170 196 4,000 600 Climbing Indianapolis Center
05:13AM 40.2850 -83.1864 337° Northwest 166 191 4,400 660 Climbing Indianapolis Center
05:13AM 40.2903 -83.1922 320° Northwest 163 188 4,700 660 Climbing Indianapolis Center
05:14AM 40.3267 -83.2081 342° North 164 189 5,100 600 Climbing Indianapolis Center
05:14AM 40.3325 -83.2128 328° Northwest 157 181 5,300 600 Climbing Indianapolis Center
05:15AM 40.3722 -83.2358 336° Northwest 158 182 5,800 240 Climbing Indianapolis Center
05:16AM 40.4064 -83.2539 338° Northwest 157 181 5,800 60 Level Indianapolis Center
05:17AM 40.4511 -83.2722 343° North 164 189 6,000  Climbing Indianapolis Center
05:18AM 40.4964 -83.2914 342° North 170 196 5,900  Descending Indianapolis Center
05:19AM 40.5386 -83.3197 333° Northwest 170 196 6,000  Climbing Indianapolis Center
05:20AM 40.5819 -83.3450 336° Northwest 170 196 5,900 -60 Descending Indianapolis Center
05:21AM 40.6242 -83.3689 337° Northwest 167 192 5,900 60 Level Indianapolis Center
05:22AM 40.6667 -83.3917 338° Northwest 167 192 6,100  Climbing Indianapolis Center
05:23AM 40.7067 -83.4147 336° Northwest 160 184 5,900 -60 Descending Indianapolis Center
05:24AM 40.7475 -83.4428 333° Northwest 164 189 6,000  Climbing Indianapolis Center
05:25AM 40.7947 -83.4736 334° Northwest 166 191 6,000  Level Indianapolis Center
05:26AM 40.8344 -83.5006 333° Northwest 162 186 6,000  Level Indianapolis Center
05:27AM 40.8703 -83.5222 335° Northwest 164 189 6,000  Level Indianapolis Center
05:28AM 40.9092 -83.5486 333° Northwest 159 183 6,000  Level Indianapolis Center
05:29AM 40.9500 -83.5742 335° Northwest 161 185 6,000 -60 Level Cleveland Center
05:30AM 40.9908 -83.5975 337° Northwest 160 184 5,900 -60 Descending Cleveland Center
05:31AM 41.0333 -83.6217 337° Northwest 165 190 5,900  Level Cleveland Center
05:32AM 41.0731 -83.6481 333° Northwest 161 185 5,900  Level Cleveland Center
05:33AM 41.1172 -83.6703 339° North 155 178 6,000  Climbing Cleveland Center
05:34AM 41.1600 -83.6911 340° North 162 186 5,900 -60 Descending Cleveland Center
05:35AM 41.2008 -83.7197 332° Northwest 165 190 5,900  Level Cleveland Center
05:36AM 41.2411 -83.7450 335° Northwest 163 188 5,900  Level Cleveland Center
05:37AM 41.2814 -83.7717 334° Northwest 162 186 5,900  Level Cleveland Center
05:38AM 41.3242 -83.7989 334° Northwest 167 192 5,900  Level Cleveland Center
05:39AM 41.3664 -83.8258 334° Northwest 169 194 5,900  Level Cleveland Center
05:40AM 41.4081 -83.8533 334° Northwest 168 193 5,900  Level Cleveland Center
05:41AM 41.4506 -83.8797 335° Northwest 170 196 5,900  Level Cleveland Center
05:42AM 41.4917 -83.9069 334° Northwest 166 191 6,000  Climbing Cleveland Center
05:43AM 41.5311 -83.9342 333° Northwest 163 188 5,900  Descending Cleveland Center
05:44AM 41.5733 -83.9581 337° Northwest 164 189 6,000 -60 Climbing Cleveland Center
05:45AM 41.6147 -83.9772 341° North 161 185 5,800 -60 Descending Cleveland Center
05:46AM 41.6556 -83.9992 338° Northwest 159 183 5,900  Climbing Cleveland Center
05:47AM 41.6894 -84.0281 328° Northwest 149 171 5,800 -60 Descending Cleveland Center
05:48AM 41.7319 -84.0506 338° Northwest 160 184 5,800  Level Cleveland Center
05:49AM 41.7725 -84.0731 338° Northwest 159 183 5,800  Level Cleveland Center
05:50AM 41.8133 -84.0931 340° North 158 182 5,900  Climbing Cleveland Center
05:51AM 41.8508 -84.1206 331° Northwest 155 178 5,800 -60 Descending Cleveland Center
05:52AM 41.8889 -84.1442 335° Northwest 156 180 5,800 -60 Level Cleveland Center
05:53AM 41.9311 -84.1606 344° North 158 182 5,700 -120 Descending Cleveland Center